createdAt,value
2023-05-02T00:00:12.520Z,26.02
2023-05-02T00:01:12.584Z,26.05
2023-05-02T00:02:12.601Z,26.03
2023-05-02T00:03:12.637Z,26.05
2023-05-02T00:04:12.680Z,26.02
2023-05-02T00:05:12.584Z,26.05
2023-05-02T00:06:14.395Z,26.02
2023-05-02T00:07:12.594Z,26.03
2023-05-02T00:08:12.599Z,26.03
2023-05-02T00:09:12.605Z,26.02
2023-05-02T00:10:12.609Z,26.02
2023-05-02T00:11:12.641Z,26.03
2023-05-02T00:12:12.655Z,26.03
2023-05-02T00:13:12.665Z,26.03
2023-05-02T00:14:12.667Z,26.02
2023-05-02T00:15:12.691Z,26.03
2023-05-02T00:16:12.687Z,26.06
2023-05-02T00:17:12.678Z,26.02
2023-05-02T00:18:12.712Z,26.03
2023-05-02T00:19:12.713Z,26.03
2023-05-02T00:20:12.724Z,26.02
2023-05-02T00:21:12.727Z,26.02
2023-05-02T00:22:12.730Z,26.02
2023-05-02T00:23:12.723Z,26.01
2023-05-02T00:24:12.745Z,26.03
2023-05-02T00:25:12.753Z,26.02
2023-05-02T00:26:12.779Z,26.05
2023-05-02T00:27:12.750Z,26.02
2023-05-02T00:28:12.772Z,26.02
2023-05-02T00:29:12.814Z,26.03
2023-05-02T00:30:12.782Z,26.02
2023-05-02T00:31:12.904Z,26.02
2023-05-02T00:32:12.803Z,26.02
2023-05-02T00:33:13.019Z,26.02
2023-05-02T00:34:12.845Z,26.01
2023-05-02T00:35:12.869Z,26.01
2023-05-02T00:36:12.859Z,26.01
2023-05-02T00:37:12.861Z,25.99
2023-05-02T00:38:12.873Z,26.02
2023-05-02T00:39:12.889Z,26.01
2023-05-02T00:40:12.925Z,26.02
2023-05-02T00:41:12.930Z,26.02
2023-05-02T00:42:12.937Z,26.02
2023-05-02T00:43:12.963Z,26.01
2023-05-02T00:44:12.971Z,25.98
2023-05-02T00:45:12.976Z,26.02
2023-05-02T00:46:13.900Z,26.02
2023-05-02T00:47:12.990Z,25.99
2023-05-02T00:48:13.091Z,25.99
2023-05-02T00:49:13.046Z,26.01
2023-05-02T00:50:13.043Z,25.98
2023-05-02T00:51:13.068Z,26.01
2023-05-02T00:52:13.110Z,26.01
2023-05-02T00:53:13.104Z,26.02
2023-05-02T00:54:13.113Z,26.01
2023-05-02T00:55:13.146Z,26.01
2023-05-02T00:56:13.167Z,25.98
2023-05-02T00:57:13.179Z,25.99
2023-05-02T00:58:13.224Z,26.01
2023-05-02T00:59:13.200Z,25.99
2023-05-02T01:00:13.225Z,25.99
2023-05-02T01:01:13.236Z,26.01
2023-05-02T01:02:13.402Z,25.99
2023-05-02T01:03:13.388Z,25.99
2023-05-02T01:04:13.403Z,25.99
2023-05-02T01:05:13.321Z,25.98
2023-05-02T01:06:13.355Z,25.98
2023-05-02T01:07:13.908Z,25.98
2023-05-02T01:08:13.364Z,25.99
2023-05-02T01:09:13.412Z,25.98
2023-05-02T01:10:13.436Z,25.95
2023-05-02T01:11:13.418Z,25.96
2023-05-02T01:12:13.428Z,25.98
2023-05-02T01:13:13.437Z,25.98
2023-05-02T01:14:13.494Z,25.98
2023-05-02T01:15:13.482Z,25.98
2023-05-02T01:16:13.578Z,25.98
2023-05-02T01:17:13.545Z,25.98
2023-05-02T01:18:13.626Z,25.95
2023-05-02T01:19:13.574Z,25.98
2023-05-02T01:20:13.589Z,25.96
2023-05-02T01:21:13.621Z,25.96
2023-05-02T01:22:13.626Z,25.95
2023-05-02T01:23:13.641Z,25.95
2023-05-02T01:24:13.670Z,25.98
2023-05-02T01:25:13.701Z,25.95
2023-05-02T01:26:13.692Z,25.95
2023-05-02T01:27:13.718Z,25.99
2023-05-02T01:28:13.758Z,25.96
2023-05-02T01:29:13.752Z,25.96
2023-05-02T01:30:13.755Z,25.95
2023-05-02T01:31:13.812Z,25.95
2023-05-02T01:32:13.785Z,25.95
2023-05-02T01:33:13.984Z,25.98
2023-05-02T01:34:13.846Z,25.95
2023-05-02T01:35:13.866Z,25.95
2023-05-02T01:36:13.892Z,25.96
2023-05-02T01:37:13.872Z,25.96
2023-05-02T01:38:13.889Z,25.98
2023-05-02T01:39:13.940Z,25.95
2023-05-02T01:40:13.919Z,25.92
2023-05-02T01:41:13.969Z,25.96
2023-05-02T01:42:13.924Z,25.94
2023-05-02T01:43:14.891Z,25.95
2023-05-02T01:44:13.991Z,25.95
2023-05-02T01:45:13.972Z,25.94
2023-05-02T01:46:14.019Z,25.96
2023-05-02T01:47:14.076Z,25.91
2023-05-02T01:48:14.037Z,25.94
2023-05-02T01:49:14.036Z,25.95
2023-05-02T01:50:14.079Z,25.92
2023-05-02T01:51:14.084Z,25.94
2023-05-02T01:52:14.108Z,25.92
2023-05-02T01:53:14.108Z,25.92
2023-05-02T01:54:14.124Z,25.94
2023-05-02T01:55:14.134Z,25.94
2023-05-02T01:56:14.148Z,25.94
2023-05-02T01:57:14.181Z,25.94
2023-05-02T01:58:14.177Z,25.94
2023-05-02T01:59:14.202Z,25.95
2023-05-02T02:00:14.196Z,25.92
2023-05-02T02:01:14.258Z,25.92
2023-05-02T02:02:14.257Z,25.95
2023-05-02T02:03:14.324Z,25.94
2023-05-02T02:04:14.321Z,25.94
2023-05-02T02:05:14.369Z,25.91
2023-05-02T02:06:14.388Z,25.92
2023-05-02T02:07:14.293Z,25.94
2023-05-02T02:08:14.347Z,25.92
2023-05-02T02:09:14.378Z,25.92
2023-05-02T02:10:14.377Z,25.89
2023-05-02T02:11:14.388Z,25.92
2023-05-02T02:12:14.420Z,25.91
2023-05-02T02:13:14.409Z,25.92
2023-05-02T02:14:14.457Z,25.92
2023-05-02T02:15:14.448Z,25.94
2023-05-02T02:16:14.513Z,25.91
2023-05-02T02:17:14.502Z,25.92
2023-05-02T02:18:14.720Z,25.91
2023-05-02T02:19:14.509Z,25.94
2023-05-02T02:20:14.550Z,25.89
2023-05-02T02:21:14.563Z,25.92
2023-05-02T02:22:14.557Z,25.92
2023-05-02T02:23:14.584Z,25.92
2023-05-02T02:24:14.619Z,25.92
2023-05-02T02:25:14.641Z,25.92
2023-05-02T02:26:14.661Z,25.91
2023-05-02T02:27:14.694Z,25.89
2023-05-02T02:28:14.743Z,25.91
2023-05-02T02:29:14.758Z,25.91
2023-05-02T02:30:14.783Z,25.91
2023-05-02T02:31:14.806Z,25.89
2023-05-02T02:32:14.805Z,25.89
2023-05-02T02:33:14.913Z,25.91
2023-05-02T02:34:14.847Z,25.94
2023-05-02T02:35:14.891Z,25.89
2023-05-02T02:36:14.887Z,25.91
2023-05-02T02:37:14.920Z,25.91
2023-05-02T02:38:14.950Z,25.89
2023-05-02T02:39:14.966Z,25.89
2023-05-02T02:40:15.014Z,25.89
2023-05-02T02:41:15.004Z,25.91
2023-05-02T02:42:15.070Z,25.91
2023-05-02T02:43:15.068Z,25.91
2023-05-02T02:44:15.088Z,25.89
2023-05-02T02:45:15.098Z,25.91
2023-05-02T02:46:15.124Z,25.89
2023-05-02T02:47:15.149Z,25.89
2023-05-02T02:48:15.230Z,25.89
2023-05-02T02:49:15.190Z,25.88
2023-05-02T02:50:15.235Z,25.92
2023-05-02T02:51:15.244Z,25.91
2023-05-02T02:52:15.265Z,25.88
2023-05-02T02:53:15.304Z,25.88
2023-05-02T02:54:25.780Z,25.89
2023-05-02T02:55:16.322Z,25.88
2023-05-02T02:56:15.341Z,25.88
2023-05-02T02:57:15.311Z,25.87
2023-05-02T02:58:15.296Z,25.89
2023-05-02T02:59:15.311Z,25.89
2023-05-02T03:00:15.309Z,25.88
2023-05-02T03:01:15.339Z,25.88
2023-05-02T03:02:15.266Z,25.88
2023-05-02T03:03:15.369Z,25.88
2023-05-02T03:04:15.297Z,25.88
2023-05-02T03:05:15.279Z,25.88
2023-05-02T03:06:15.246Z,25.88
2023-05-02T03:07:15.259Z,25.89
2023-05-02T03:08:15.260Z,25.88
2023-05-02T03:09:15.269Z,25.88
2023-05-02T03:10:15.266Z,25.85
2023-05-02T03:11:15.313Z,25.87
2023-05-02T03:12:15.367Z,25.87
2023-05-02T03:13:15.341Z,25.88
2023-05-02T03:14:15.424Z,25.87
2023-05-02T03:15:15.437Z,25.85
2023-05-02T03:16:15.501Z,25.88
2023-05-02T03:17:15.549Z,25.85
2023-05-02T03:18:15.516Z,25.87
2023-05-02T03:19:15.515Z,25.82
2023-05-02T03:20:15.636Z,25.88
2023-05-02T03:21:15.580Z,25.87
2023-05-02T03:22:15.615Z,25.87
2023-05-02T03:23:15.645Z,25.87
2023-05-02T03:24:17.779Z,25.87
2023-05-02T03:25:15.661Z,25.85
2023-05-02T03:26:15.676Z,25.85
2023-05-02T03:27:15.631Z,25.85
2023-05-02T03:28:15.645Z,25.85
2023-05-02T03:29:15.656Z,25.85
2023-05-02T03:30:15.627Z,25.87
2023-05-02T03:31:15.712Z,25.85
2023-05-02T03:32:15.613Z,25.87
2023-05-02T03:33:15.656Z,25.84
2023-05-02T03:34:15.613Z,25.84
2023-05-02T03:35:15.600Z,25.85
2023-05-02T03:36:15.616Z,25.85
2023-05-02T03:37:15.575Z,25.85
2023-05-02T03:38:15.597Z,25.85
2023-05-02T03:39:15.659Z,25.85
2023-05-02T03:40:15.583Z,25.85
2023-05-02T03:41:15.620Z,25.82
2023-05-02T03:42:15.550Z,25.85
2023-05-02T03:43:15.555Z,25.84
2023-05-02T03:44:15.555Z,25.84
2023-05-02T03:45:15.535Z,25.82
2023-05-02T03:46:15.545Z,25.85
2023-05-02T03:47:15.553Z,25.85
2023-05-02T03:48:15.538Z,25.84
2023-05-02T03:49:15.515Z,25.84
2023-05-02T03:50:15.526Z,25.85
2023-05-02T03:51:15.495Z,25.84
2023-05-02T03:52:15.515Z,25.84
2023-05-02T03:53:15.493Z,25.82
2023-05-02T03:54:15.497Z,25.82
2023-05-02T03:55:15.486Z,25.82
2023-05-02T03:56:15.478Z,25.85
2023-05-02T03:57:15.467Z,25.84
2023-05-02T03:58:15.470Z,25.84
2023-05-02T03:59:15.467Z,25.82
2023-05-02T04:00:15.450Z,25.84
2023-05-02T04:01:15.427Z,25.82
2023-05-02T04:02:15.467Z,25.82
2023-05-02T04:03:15.420Z,25.84
2023-05-02T04:04:15.529Z,25.82
2023-05-02T04:05:15.389Z,25.84
2023-05-02T04:06:15.447Z,25.84
2023-05-02T04:07:15.373Z,25.81
2023-05-02T04:08:15.382Z,25.82
2023-05-02T04:09:15.359Z,25.82
2023-05-02T04:10:15.353Z,25.84
2023-05-02T04:11:15.359Z,25.81
2023-05-02T04:12:15.365Z,25.82
2023-05-02T04:13:15.344Z,25.81
2023-05-02T04:14:15.356Z,25.81
2023-05-02T04:15:15.346Z,25.82
2023-05-02T04:16:15.409Z,25.81
2023-05-02T04:17:15.426Z,25.81
2023-05-02T04:18:15.385Z,25.82
2023-05-02T04:19:15.377Z,25.81
2023-05-02T04:20:15.396Z,25.82
2023-05-02T04:21:15.459Z,25.81
2023-05-02T04:22:15.484Z,25.84
2023-05-02T04:23:15.539Z,25.80
2023-05-02T04:24:15.567Z,25.82
2023-05-02T04:25:15.610Z,25.81
2023-05-02T04:26:15.623Z,25.82
2023-05-02T04:27:15.683Z,25.81
2023-05-02T04:28:15.720Z,25.81
2023-05-02T04:29:15.781Z,25.78
2023-05-02T04:30:15.798Z,25.81
2023-05-02T04:31:15.936Z,25.84
2023-05-02T04:32:15.906Z,25.81
2023-05-02T04:33:16.010Z,25.80
2023-05-02T04:34:15.959Z,25.80
2023-05-02T04:35:16.028Z,25.80
2023-05-02T04:36:16.027Z,25.78
2023-05-02T04:37:16.296Z,25.81
2023-05-02T04:38:16.110Z,25.80
2023-05-02T04:39:16.162Z,25.80
2023-05-02T04:40:16.218Z,25.84
2023-05-02T04:41:16.227Z,25.80
2023-05-02T04:42:16.301Z,25.80
2023-05-02T04:43:16.290Z,25.80
2023-05-02T04:44:16.314Z,25.78
2023-05-02T04:45:16.403Z,25.82
2023-05-02T04:46:16.462Z,25.82
2023-05-02T04:47:16.426Z,25.81
2023-05-02T04:48:16.477Z,25.80
2023-05-02T04:49:16.518Z,25.80
2023-05-02T04:50:16.606Z,25.81
2023-05-02T04:51:17.237Z,25.80
2023-05-02T04:52:16.659Z,25.78
2023-05-02T04:53:16.684Z,25.75
2023-05-02T04:54:16.770Z,25.78
2023-05-02T04:55:16.830Z,25.74
2023-05-02T04:56:16.824Z,25.74
2023-05-02T04:57:16.888Z,25.71
2023-05-02T04:58:16.989Z,25.71
2023-05-02T04:59:17.025Z,25.70
2023-05-02T05:00:17.073Z,25.71
2023-05-02T05:01:17.178Z,25.73
2023-05-02T05:02:17.442Z,25.70
2023-05-02T05:03:17.303Z,25.68
2023-05-02T05:04:17.383Z,25.70
2023-05-02T05:05:17.418Z,25.67
2023-05-02T05:06:17.457Z,25.67
2023-05-02T05:07:17.494Z,25.67
2023-05-02T05:08:17.501Z,25.67
2023-05-02T05:09:17.577Z,25.64
2023-05-02T05:10:18.535Z,25.65
2023-05-02T05:11:17.727Z,25.68
2023-05-02T05:12:17.722Z,25.64
2023-05-02T05:13:17.788Z,25.65
2023-05-02T05:14:17.860Z,25.64
2023-05-02T05:15:17.870Z,25.65
2023-05-02T05:16:17.997Z,25.64
2023-05-02T05:17:17.979Z,25.63
2023-05-02T05:18:18.059Z,25.65
2023-05-02T05:19:18.106Z,25.65
2023-05-02T05:20:18.146Z,25.67
2023-05-02T05:21:18.176Z,25.67
2023-05-02T05:22:18.276Z,25.64
2023-05-02T05:23:18.307Z,25.68
2023-05-02T05:24:18.374Z,25.65
2023-05-02T05:25:18.404Z,25.68
2023-05-02T05:26:18.493Z,25.65
2023-05-02T05:27:18.534Z,25.65
2023-05-02T05:28:18.736Z,25.64
2023-05-02T05:29:18.657Z,25.64
2023-05-02T05:30:18.712Z,25.65
2023-05-02T05:31:18.802Z,25.65
2023-05-02T05:32:18.795Z,25.64
2023-05-02T05:33:18.955Z,25.65
2023-05-02T05:34:18.974Z,25.64
2023-05-02T05:35:18.960Z,25.63
2023-05-02T05:36:19.702Z,25.64
2023-05-02T05:37:19.075Z,25.64
2023-05-02T05:38:19.145Z,25.65
2023-05-02T05:39:19.223Z,25.64
2023-05-02T05:40:19.244Z,25.64
2023-05-02T05:41:19.336Z,25.64
2023-05-02T05:42:19.377Z,25.65
2023-05-02T05:43:19.457Z,25.65
2023-05-02T05:44:19.535Z,25.65
2023-05-02T05:45:19.555Z,25.64
2023-05-02T05:46:19.599Z,25.61
2023-05-02T05:47:19.669Z,25.64
2023-05-02T05:48:19.709Z,25.63
2023-05-02T05:49:19.788Z,25.64
2023-05-02T05:50:19.764Z,25.64
2023-05-02T05:51:19.861Z,25.67
2023-05-02T05:52:19.863Z,25.68
2023-05-02T05:53:19.961Z,25.71
2023-05-02T05:54:20.005Z,25.73
2023-05-02T05:55:20.004Z,25.73
2023-05-02T05:56:20.051Z,25.75
2023-05-02T05:57:20.035Z,25.77
2023-05-02T05:58:20.092Z,25.78
2023-05-02T05:59:20.121Z,25.80
2023-05-02T06:00:20.125Z,25.81
2023-05-02T06:01:20.170Z,25.81
2023-05-02T06:02:20.265Z,25.84
2023-05-02T06:03:20.284Z,25.84
2023-05-02T06:04:20.546Z,25.82
2023-05-02T06:05:20.314Z,25.82
2023-05-02T06:06:20.354Z,25.82
2023-05-02T06:07:20.368Z,25.81
2023-05-02T06:08:20.389Z,25.81
2023-05-02T06:09:20.431Z,25.81
2023-05-02T06:10:20.531Z,25.82
2023-05-02T06:11:20.505Z,25.80
2023-05-02T06:12:20.565Z,25.82
2023-05-02T06:13:20.603Z,25.80
2023-05-02T06:14:20.641Z,25.80
2023-05-02T06:15:20.695Z,25.78
2023-05-02T06:16:20.794Z,25.78
2023-05-02T06:17:20.798Z,25.77
2023-05-02T06:18:20.841Z,25.80
2023-05-02T06:19:20.863Z,25.78
2023-05-02T06:20:20.921Z,25.78
2023-05-02T06:21:20.959Z,25.77
2023-05-02T06:22:21.011Z,25.75
2023-05-02T06:23:21.028Z,25.77
2023-05-02T06:24:21.122Z,25.75
2023-05-02T06:25:21.170Z,25.75
2023-05-02T06:26:21.213Z,25.74
2023-05-02T06:27:21.213Z,25.77
2023-05-02T06:28:21.304Z,25.75
2023-05-02T06:29:21.324Z,25.75
2023-05-02T06:30:21.508Z,25.77
2023-05-02T06:31:21.480Z,25.77
2023-05-02T06:32:21.445Z,25.77
2023-05-02T06:33:21.514Z,25.74
2023-05-02T06:34:21.570Z,25.74
2023-05-02T06:35:21.609Z,25.77
2023-05-02T06:36:21.648Z,25.75
2023-05-02T06:37:21.781Z,25.74
2023-05-02T06:38:21.724Z,25.75
2023-05-02T06:39:21.795Z,25.75
2023-05-02T06:40:21.837Z,25.77
2023-05-02T06:41:21.878Z,25.75
2023-05-02T06:42:21.914Z,25.77
2023-05-02T06:43:21.950Z,25.77
2023-05-02T06:44:22.012Z,25.77
2023-05-02T06:45:22.073Z,25.77
2023-05-02T06:46:22.115Z,25.78
2023-05-02T06:47:22.196Z,25.75
2023-05-02T06:48:22.165Z,25.75
2023-05-02T06:49:22.217Z,25.74
2023-05-02T06:50:22.489Z,25.75
2023-05-02T06:51:22.297Z,25.73
2023-05-02T06:52:22.351Z,25.75
2023-05-02T06:53:22.401Z,25.77
2023-05-02T06:54:22.440Z,25.78
2023-05-02T06:55:22.530Z,25.81
2023-05-02T06:56:22.517Z,25.81
2023-05-02T06:57:22.538Z,25.85
2023-05-02T06:58:22.585Z,25.87
2023-05-02T06:59:22.602Z,25.87
2023-05-02T07:00:22.633Z,25.89
2023-05-02T07:01:22.716Z,25.91
2023-05-02T07:02:22.773Z,25.94
2023-05-02T07:03:22.674Z,25.95
2023-05-02T07:04:22.758Z,25.96
2023-05-02T07:05:22.705Z,26.03
2023-05-02T07:06:22.734Z,26.01
2023-05-02T07:07:22.715Z,26.01
2023-05-02T07:08:22.716Z,26.03
2023-05-02T07:09:22.725Z,26.06
2023-05-02T07:10:22.742Z,26.09
2023-05-02T07:11:22.724Z,26.13
2023-05-02T07:12:22.737Z,26.13
2023-05-02T07:13:22.828Z,26.16
2023-05-02T07:14:22.807Z,26.15
2023-05-02T07:15:22.808Z,26.18
2023-05-02T07:16:22.855Z,26.20
2023-05-02T07:17:22.993Z,26.22
2023-05-02T07:18:22.913Z,26.22
2023-05-02T07:19:22.926Z,26.25
2023-05-02T07:20:22.933Z,26.26
2023-05-02T07:21:22.948Z,26.28
2023-05-02T07:22:22.953Z,26.29
2023-05-02T07:23:23.042Z,26.32
2023-05-02T07:24:23.166Z,26.33
2023-05-02T07:25:23.147Z,26.32
2023-05-02T07:26:23.140Z,26.33
2023-05-02T07:27:23.156Z,26.36
2023-05-02T07:28:23.140Z,26.33
2023-05-02T07:29:23.159Z,26.37
2023-05-02T07:30:23.218Z,26.37
2023-05-02T07:31:23.392Z,26.40
2023-05-02T07:32:23.217Z,26.40
2023-05-02T07:33:23.207Z,26.42
2023-05-02T07:34:23.173Z,26.43
2023-05-02T07:35:23.220Z,26.43
2023-05-02T07:36:23.211Z,26.44
2023-05-02T07:37:23.185Z,26.44
2023-05-02T07:38:23.200Z,26.46
2023-05-02T07:39:23.221Z,26.47
2023-05-02T07:40:23.599Z,26.43
2023-05-02T07:41:23.304Z,26.46
2023-05-02T07:42:23.298Z,26.47
2023-05-02T07:43:23.403Z,26.48
2023-05-02T07:44:23.381Z,26.46
2023-05-02T07:45:23.544Z,26.46
2023-05-02T07:46:23.530Z,26.39
2023-05-02T07:47:23.490Z,26.42
2023-05-02T07:48:24.991Z,26.37
2023-05-02T07:49:23.523Z,26.40
2023-05-02T07:50:23.586Z,26.40
2023-05-02T07:51:23.497Z,26.39
2023-05-02T07:52:23.525Z,26.40
2023-05-02T07:53:23.486Z,26.42
2023-05-02T07:54:23.485Z,26.40
2023-05-02T07:55:23.522Z,26.40
2023-05-02T07:56:23.459Z,26.44
2023-05-02T07:57:23.476Z,26.42
2023-05-02T07:58:23.431Z,26.44
2023-05-02T07:59:23.428Z,26.46
2023-05-02T08:00:23.455Z,26.47
2023-05-02T08:01:23.418Z,26.46
2023-05-02T08:02:23.537Z,26.48
2023-05-02T08:03:23.626Z,26.50
2023-05-02T08:04:23.489Z,26.48
2023-05-02T08:05:23.552Z,26.46
2023-05-02T08:06:23.447Z,26.47
2023-05-02T08:07:23.379Z,26.48
2023-05-02T08:08:23.398Z,26.48
2023-05-02T08:09:23.374Z,26.47
2023-05-02T08:10:23.382Z,26.50
2023-05-02T08:11:23.902Z,26.47
2023-05-02T08:12:23.344Z,26.48
2023-05-02T08:13:23.336Z,26.48
2023-05-02T08:14:23.331Z,26.46
2023-05-02T08:15:23.345Z,26.44
2023-05-02T08:16:23.382Z,26.44
2023-05-02T08:17:23.370Z,26.44
2023-05-02T08:18:23.325Z,26.47
2023-05-02T08:19:23.315Z,26.44
2023-05-02T08:20:23.399Z,26.46
2023-05-02T08:21:23.297Z,26.46
2023-05-02T08:22:23.309Z,26.44
2023-05-02T08:23:23.291Z,26.44
2023-05-02T08:24:23.287Z,26.47
2023-05-02T08:25:23.258Z,26.48
2023-05-02T08:26:23.254Z,26.46
2023-05-02T08:27:23.309Z,26.47
2023-05-02T08:28:23.252Z,26.47
2023-05-02T08:29:23.269Z,26.48
2023-05-02T08:30:23.246Z,26.48
2023-05-02T08:31:23.315Z,26.50
2023-05-02T08:32:23.238Z,26.47
2023-05-02T08:33:23.353Z,26.48
2023-05-02T08:34:23.238Z,26.48
2023-05-02T08:35:23.550Z,26.48
2023-05-02T08:36:23.250Z,26.48
2023-05-02T08:37:23.194Z,26.47
2023-05-02T08:38:23.198Z,26.46
2023-05-02T08:39:23.197Z,26.44
2023-05-02T08:40:34.032Z,26.44
2023-05-02T08:41:24.174Z,26.44
2023-05-02T08:42:23.179Z,26.42
2023-05-02T08:43:23.166Z,26.40
2023-05-02T08:44:23.157Z,26.40
2023-05-02T08:45:23.567Z,26.40
2023-05-02T08:46:23.235Z,26.39
2023-05-02T08:47:23.199Z,26.37
2023-05-02T08:48:23.117Z,26.36
2023-05-02T08:49:23.099Z,26.33
2023-05-02T08:50:23.542Z,26.32
2023-05-02T08:51:23.132Z,26.32
2023-05-02T08:52:23.075Z,26.28
2023-05-02T08:53:23.103Z,26.25
2023-05-02T08:54:23.101Z,26.28
2023-05-02T08:55:23.072Z,26.28
2023-05-02T08:56:23.091Z,26.30
2023-05-02T08:57:23.073Z,26.29
2023-05-02T08:58:23.084Z,26.32
2023-05-02T08:59:23.064Z,26.32
2023-05-02T09:00:23.585Z,26.32
2023-05-02T09:01:23.349Z,26.36
2023-05-02T09:02:23.141Z,26.36
2023-05-02T09:03:23.652Z,26.36
2023-05-02T09:04:23.159Z,26.37
2023-05-02T09:05:23.211Z,26.39
2023-05-02T09:06:23.220Z,26.39
2023-05-02T09:07:23.122Z,26.40
2023-05-02T09:08:23.117Z,26.43
2023-05-02T09:09:23.118Z,26.43
2023-05-02T09:10:23.592Z,26.43
2023-05-02T09:11:23.186Z,26.44
2023-05-02T09:12:23.212Z,26.44
2023-05-02T09:13:23.247Z,26.48
2023-05-02T09:14:23.233Z,26.47
2023-05-02T09:15:23.316Z,26.47
2023-05-02T09:16:23.561Z,26.50
2023-05-02T09:17:23.353Z,26.50
2023-05-02T09:18:23.343Z,26.48
2023-05-02T09:19:23.384Z,26.51
2023-05-02T09:20:23.433Z,26.50
2023-05-02T09:21:23.459Z,26.48
2023-05-02T09:22:23.504Z,26.48
2023-05-02T09:23:23.493Z,26.50
2023-05-02T09:24:23.527Z,26.53
2023-05-02T09:25:25.225Z,26.51
2023-05-02T09:26:23.627Z,26.48
2023-05-02T09:27:23.690Z,26.53
2023-05-02T09:28:23.694Z,26.53
2023-05-02T09:29:23.735Z,26.51
2023-05-02T09:30:24.107Z,26.54
2023-05-02T09:32:23.887Z,26.54
2023-05-02T09:33:23.830Z,26.57
2023-05-02T09:34:23.922Z,26.57
2023-05-02T09:35:23.859Z,26.54
2023-05-02T09:36:23.830Z,26.57
2023-05-02T09:37:23.876Z,26.57
2023-05-02T09:38:23.797Z,26.58
2023-05-02T09:39:25.945Z,26.57
2023-05-02T09:40:24.076Z,26.54
2023-05-02T09:41:23.959Z,26.57
2023-05-02T09:42:24.048Z,26.56
2023-05-02T09:43:24.062Z,26.56
2023-05-02T09:44:24.118Z,26.57
2023-05-02T09:45:24.613Z,26.54
2023-05-02T09:46:24.232Z,26.56
2023-05-02T09:47:24.267Z,26.56
2023-05-02T09:48:24.237Z,26.56
2023-05-02T09:49:24.244Z,26.50
2023-05-02T09:50:24.244Z,26.48
2023-05-02T09:51:24.576Z,26.43
2023-05-02T09:52:24.281Z,26.42
2023-05-02T09:53:24.285Z,26.40
2023-05-02T09:54:24.342Z,26.39
2023-05-02T09:55:24.343Z,26.43
2023-05-02T09:56:26.027Z,26.42
2023-05-02T09:57:24.318Z,26.42
2023-05-02T09:58:24.360Z,26.39
2023-05-02T09:59:24.349Z,26.40
2023-05-02T10:00:24.361Z,26.43
2023-05-02T10:01:24.370Z,26.42
2023-05-02T10:02:24.465Z,26.43
2023-05-02T10:03:24.400Z,26.43
2023-05-02T10:04:24.456Z,26.36
2023-05-02T10:05:24.457Z,26.42
2023-05-02T10:06:24.516Z,26.44
2023-05-02T10:07:24.429Z,26.44
2023-05-02T10:08:24.430Z,26.47
2023-05-02T10:09:24.402Z,26.47
2023-05-02T10:10:24.446Z,26.46
2023-05-02T10:11:24.430Z,26.47
2023-05-02T10:12:24.431Z,26.46
2023-05-02T10:13:24.465Z,26.47
2023-05-02T10:14:25.126Z,26.48
2023-05-02T10:15:24.530Z,26.51
2023-05-02T10:16:24.587Z,26.50
2023-05-02T10:17:24.534Z,26.48
2023-05-02T10:18:24.512Z,26.51
2023-05-02T10:19:24.563Z,26.47
2023-05-02T10:20:25.455Z,26.46
2023-05-02T10:21:24.547Z,26.44
2023-05-02T10:22:24.521Z,26.44
2023-05-02T10:23:24.547Z,26.43
2023-05-02T10:24:24.508Z,26.46
2023-05-02T10:25:24.524Z,26.47
2023-05-02T10:26:24.595Z,26.53
2023-05-02T10:27:24.668Z,26.56
2023-05-02T10:28:24.666Z,26.58
2023-05-02T10:29:24.741Z,26.66
2023-05-02T10:30:24.748Z,26.71
2023-05-02T10:31:24.830Z,26.75
2023-05-02T10:32:24.744Z,26.80
2023-05-02T10:33:24.766Z,26.81
2023-05-02T10:34:24.701Z,26.81
2023-05-02T10:35:24.704Z,26.80
2023-05-02T10:36:25.135Z,26.81
2023-05-02T10:37:24.694Z,26.81
2023-05-02T10:38:24.943Z,26.81
2023-05-02T10:39:24.664Z,26.81
2023-05-02T10:40:24.692Z,26.78
2023-05-02T10:41:25.088Z,26.73
2023-05-02T10:42:24.687Z,26.74
2023-05-02T10:43:24.779Z,26.70
2023-05-02T10:44:25.852Z,26.74
2023-05-02T10:45:24.802Z,26.75
2023-05-02T10:46:24.858Z,26.77
2023-05-02T10:47:24.979Z,26.81
2023-05-02T10:48:24.965Z,26.78
2023-05-02T10:49:24.970Z,26.80
2023-05-02T10:50:26.039Z,26.84
2023-05-02T10:51:25.032Z,26.83
2023-05-02T10:52:25.079Z,26.84
2023-05-02T10:53:25.133Z,26.85
2023-05-02T10:54:25.146Z,26.85
2023-05-02T10:55:25.206Z,26.85
2023-05-02T10:56:26.393Z,26.87
2023-05-02T10:57:25.319Z,26.88
2023-05-02T10:58:25.456Z,26.85
2023-05-02T10:59:25.421Z,26.87
2023-05-02T11:00:25.429Z,26.90
2023-05-02T11:01:25.821Z,26.88
2023-05-02T11:02:25.597Z,26.90
2023-05-02T11:03:25.547Z,26.88
2023-05-02T11:04:25.592Z,26.87
2023-05-02T11:05:25.583Z,26.85
2023-05-02T11:06:25.681Z,26.88
2023-05-02T11:07:25.651Z,26.90
2023-05-02T11:08:25.706Z,26.87
2023-05-02T11:09:25.754Z,26.90
2023-05-02T11:10:25.760Z,26.90
2023-05-02T11:11:25.845Z,26.90
2023-05-02T11:12:25.833Z,26.88
2023-05-02T11:13:25.891Z,26.87
2023-05-02T11:14:25.955Z,26.87
2023-05-02T11:15:25.962Z,26.84
2023-05-02T11:16:26.047Z,26.83
2023-05-02T11:17:26.090Z,26.80
2023-05-02T11:18:26.127Z,26.78
2023-05-02T11:19:26.189Z,26.75
2023-05-02T11:20:26.281Z,26.74
2023-05-02T11:21:26.315Z,26.73
2023-05-02T11:22:26.367Z,26.70
2023-05-02T11:23:26.469Z,26.70
2023-05-02T11:24:26.494Z,26.73
2023-05-02T11:25:27.447Z,26.70
2023-05-02T11:26:26.609Z,26.70
2023-05-02T11:27:26.631Z,26.73
2023-05-02T11:28:26.709Z,26.73
2023-05-02T11:29:26.747Z,26.73
2023-05-02T11:30:26.815Z,26.74
2023-05-02T11:31:27.184Z,26.75
2023-05-02T11:32:26.954Z,26.75
2023-05-02T11:33:26.950Z,26.75
2023-05-02T11:34:26.973Z,26.75
2023-05-02T11:35:27.079Z,26.74
2023-05-02T11:36:27.125Z,26.75
2023-05-02T11:37:28.328Z,26.74
2023-05-02T11:38:28.126Z,26.75
2023-05-02T11:39:27.208Z,26.74
2023-05-02T11:40:27.261Z,26.73
2023-05-02T11:41:27.309Z,26.70
2023-05-02T11:42:27.350Z,26.70
2023-05-02T11:43:28.215Z,26.67
2023-05-02T11:44:27.641Z,26.68
2023-05-02T11:45:27.694Z,26.66
2023-05-02T11:46:27.795Z,26.63
2023-05-02T11:47:27.835Z,26.66
2023-05-02T11:48:27.882Z,26.61
2023-05-02T11:49:27.937Z,26.58
2023-05-02T11:50:28.019Z,26.58
2023-05-02T11:51:28.069Z,26.57
2023-05-02T11:52:28.095Z,26.54
2023-05-02T11:53:28.112Z,26.53
2023-05-02T11:54:28.178Z,26.53
2023-05-02T11:55:28.235Z,26.53
2023-05-02T11:56:28.285Z,26.53
2023-05-02T11:57:28.303Z,26.50
2023-05-02T11:58:28.301Z,26.48
2023-05-02T11:59:28.303Z,26.50
2023-05-02T12:00:28.372Z,26.50
2023-05-02T12:01:28.372Z,26.47
2023-05-02T12:02:28.409Z,26.47
2023-05-02T12:03:28.571Z,26.48
2023-05-02T12:04:28.362Z,26.46
2023-05-02T12:05:28.528Z,26.44
2023-05-02T12:06:28.438Z,26.46
2023-05-02T12:07:28.421Z,26.43
2023-05-02T12:08:28.434Z,26.42
2023-05-02T12:09:28.458Z,26.43
2023-05-02T12:10:28.501Z,26.43
2023-05-02T12:11:28.493Z,26.42
2023-05-02T12:12:28.493Z,26.43
2023-05-02T12:13:28.502Z,26.40
2023-05-02T12:14:28.564Z,26.40
2023-05-02T12:15:28.539Z,26.42
2023-05-02T12:16:28.674Z,26.40
2023-05-02T12:17:28.586Z,26.40
2023-05-02T12:18:28.562Z,26.42
2023-05-02T12:19:28.607Z,26.40
2023-05-02T12:20:28.595Z,26.40
2023-05-02T12:21:28.620Z,26.40
2023-05-02T12:22:28.589Z,26.40
2023-05-02T12:23:28.612Z,26.40
2023-05-02T12:24:28.619Z,26.40
2023-05-02T12:25:28.613Z,26.42
2023-05-02T12:26:28.630Z,26.42
2023-05-02T12:27:28.721Z,26.40
2023-05-02T12:28:28.653Z,26.39
2023-05-02T12:29:28.681Z,26.40
2023-05-02T12:30:28.711Z,26.42
2023-05-02T12:31:28.767Z,26.42
2023-05-02T12:32:28.860Z,26.40
2023-05-02T12:33:28.741Z,26.43
2023-05-02T12:34:28.752Z,26.42
2023-05-02T12:35:28.794Z,26.42
2023-05-02T12:36:28.874Z,26.43
2023-05-02T12:37:28.816Z,26.42
2023-05-02T12:38:28.831Z,26.43
2023-05-02T12:39:28.849Z,26.44
2023-05-02T12:40:28.867Z,26.42
2023-05-02T12:41:28.969Z,26.43
2023-05-02T12:42:29.033Z,26.44
2023-05-02T12:43:29.033Z,26.42
2023-05-02T12:44:29.085Z,26.43
2023-05-02T12:45:29.060Z,26.46
2023-05-02T12:46:29.131Z,26.42
2023-05-02T12:47:29.122Z,26.44
2023-05-02T12:48:29.083Z,26.43
2023-05-02T12:49:29.072Z,26.42
2023-05-02T12:50:29.135Z,26.42
2023-05-02T12:51:29.110Z,26.44
2023-05-02T12:52:29.155Z,26.42
2023-05-02T12:53:29.122Z,26.40